Time;durP1;ratioP1;P1;durP2;ratioP2;P2;SDS_P1;SDS_P2;PMS_P1;PMS_P2;Temp;Humidity;BMP_temperature;BMP_pressure;BME280_temperature;BME280_humidity;BME280_pressure;Samples;Min_cycle;Max_cycle;Signal;HPM_P1;HPM_P2
2022/11/13 00:01:54;;;;;;;23.00;13.87;;;9.40;99.90;;;;;;5025879;28;20209;-67
2022/11/13 00:04:20;;;;;;;19.77;14.53;;;9.40;99.90;;;;;;5026116;28;20483;-68
2022/11/13 00:06:46;;;;;;;33.90;14.30;;;9.30;99.90;;;;;;5026003;28;20262;-67
2022/11/13 00:09:11;;;;;;;18.50;14.50;;;9.30;99.90;;;;;;5025181;28;20243;-68
2022/11/13 00:11:37;;;;;;;25.13;14.00;;;9.30;99.90;;;;;;5026123;28;20204;-68
2022/11/13 00:14:03;;;;;;;18.07;14.10;;;9.30;99.90;;;;;;5024972;28;20192;-68
2022/11/13 00:16:29;;;;;;;27.03;15.03;;;9.30;99.90;;;;;;5022595;28;20719;-67
2022/11/13 00:18:54;;;;;;;18.90;13.07;;;9.30;99.90;;;;;;5026199;28;20574;-68
2022/11/13 00:21:22;;;;;;;20.77;15.13;;;9.30;99.90;;;;;;5024431;28;20225;-69
2022/11/13 00:23:49;;;;;;;19.37;13.90;;;9.30;99.90;;;;;;5026912;28;20191;-68
2022/11/13 00:26:19;;;;;;;24.80;13.97;;;9.30;99.90;;;;;;5024425;28;20493;-68
2022/11/13 00:28:45;;;;;;;20.83;15.83;;;9.30;99.90;;;;;;5024669;28;20442;-67
2022/11/13 00:31:13;;;;;;;18.23;13.27;;;9.30;99.90;;;;;;5026113;28;20478;-68
2022/11/13 00:33:39;;;;;;;21.87;14.50;;;9.30;99.90;;;;;;5021250;28;20458;-68
2022/11/13 00:36:09;;;;;;;20.63;13.67;;;9.30;99.90;;;;;;5027881;28;20647;-67
2022/11/13 00:38:35;;;;;;;20.30;14.73;;;9.30;99.90;;;;;;5029597;28;20220;-67
2022/11/13 00:41:01;;;;;;;21.83;14.70;;;9.30;99.90;;;;;;5033267;28;20462;-67
2022/11/13 00:43:27;;;;;;;20.43;13.90;;;9.30;99.90;;;;;;5027760;28;21093;-66
2022/11/13 00:45:53;;;;;;;17.90;14.13;;;9.30;99.90;;;;;;5027731;28;20377;-66
2022/11/13 00:48:19;;;;;;;17.27;14.47;;;9.30;99.90;;;;;;5026122;28;20449;-67
2022/11/13 00:50:45;;;;;;;23.17;15.53;;;9.30;99.90;;;;;;5024991;28;20470;-66
2022/11/13 00:53:10;;;;;;;16.97;13.37;;;9.30;99.90;;;;;;5029217;28;20184;-67
2022/11/13 00:55:36;;;;;;;17.43;13.50;;;9.30;99.90;;;;;;5028109;28;20453;-67
2022/11/13 00:58:03;;;;;;;22.47;14.53;;;9.30;99.90;;;;;;5028530;28;20218;-67
2022/11/13 01:00:29;;;;;;;33.87;13.70;;;9.30;99.90;;;;;;5027656;28;20187;-68
2022/11/13 01:02:56;;;;;;;22.93;14.57;;;9.30;99.90;;;;;;5026212;28;20797;-68
2022/11/13 01:05:22;;;;;;;20.77;14.33;;;9.30;99.90;;;;;;5028479;28;20924;-68
2022/11/13 01:07:47;;;;;;;16.03;13.70;;;9.20;99.90;;;;;;5026479;28;20527;-68
2022/11/13 01:10:13;;;;;;;15.50;12.77;;;9.20;99.90;;;;;;5029531;28;20181;-68
2022/11/13 01:12:39;;;;;;;15.30;12.00;;;9.20;99.90;;;;;;5027375;28;20573;-68
2022/11/13 01:15:04;;;;;;;15.93;13.00;;;9.20;99.90;;;;;;5031515;28;20188;-67
2022/11/13 01:17:30;;;;;;;16.80;12.63;;;9.20;99.90;;;;;;5025107;28;20787;-67
2022/11/13 01:19:55;;;;;;;19.23;12.93;;;9.20;99.90;;;;;;5027496;28;20189;-68
2022/11/13 01:22:21;;;;;;;14.57;12.13;;;9.20;99.90;;;;;;5028399;28;20657;-68
2022/11/13 01:24:47;;;;;;;17.80;13.63;;;9.20;99.90;;;;;;5028054;28;20568;-67
2022/11/13 01:27:14;;;;;;;13.97;12.27;;;9.10;99.90;;;;;;5024821;28;20189;-67
2022/11/13 01:29:39;;;;;;;20.40;12.30;;;9.10;99.90;;;;;;5026953;28;20176;-68
2022/11/13 01:32:05;;;;;;;16.40;13.00;;;9.10;99.90;;;;;;5026571;28;20849;-68
2022/11/13 01:34:30;;;;;;;15.80;13.00;;;9.10;99.90;;;;;;5026524;28;20188;-68
2022/11/13 01:36:56;;;;;;;16.73;13.70;;;9.10;99.90;;;;;;5028104;28;20192;-67
2022/11/13 01:39:21;;;;;;;15.70;13.50;;;9.10;99.90;;;;;;5026396;28;20212;-67
2022/11/13 01:41:47;;;;;;;15.70;13.83;;;9.10;99.90;;;;;;5026036;28;20564;-69
2022/11/13 01:44:15;;;;;;;14.17;11.97;;;9.00;99.90;;;;;;5027213;28;20200;-67
2022/11/13 01:46:46;;;;;;;17.40;12.10;;;9.10;99.90;;;;;;5023470;28;20593;-69
2022/11/13 01:49:28;;;;;;;14.73;13.17;;;9.00;99.90;;;;;;5024577;28;20742;-67
2022/11/13 01:52:09;;;;;;;16.73;11.23;;;9.00;99.90;;;;;;5025867;28;20490;-67
2022/11/13 01:54:41;;;;;;;14.60;12.70;;;9.00;99.90;;;;;;5025286;28;20438;-68
2022/11/13 01:57:07;;;;;;;15.07;12.63;;;9.00;99.90;;;;;;5021890;28;20434;-67
2022/11/13 01:59:43;;;;;;;15.93;13.20;;;9.00;99.90;;;;;;5026324;28;20427;-67
2022/11/13 02:02:08;;;;;;;15.30;12.27;;;9.00;99.90;;;;;;5026333;28;20490;-67
2022/11/13 02:04:35;;;;;;;16.00;11.70;;;9.00;99.90;;;;;;5027258;28;20439;-67
2022/11/13 02:07:05;;;;;;;15.03;11.73;;;9.00;99.90;;;;;;5027699;28;20241;-67
2022/11/13 02:09:41;;;;;;;16.03;11.77;;;8.90;99.90;;;;;;5026483;28;20418;-69
2022/11/13 02:12:12;;;;;;;14.53;12.13;;;8.90;99.90;;;;;;5026019;28;20499;-69
2022/11/13 02:14:48;;;;;;;13.57;11.17;;;8.90;99.90;;;;;;5025803;28;20447;-69
2022/11/13 02:17:35;;;;;;;15.07;11.13;;;8.80;99.90;;;;;;5025820;28;20427;-68
2022/11/13 02:20:05;;;;;;;14.50;11.13;;;8.80;99.90;;;;;;5025998;28;20426;-68
2022/11/13 02:22:55;;;;;;;12.17;10.87;;;8.80;99.90;;;;;;5026116;28;20490;-68
2022/11/13 02:25:21;;;;;;;17.23;11.57;;;8.80;99.90;;;;;;5027189;28;20457;-68
2022/11/13 02:27:48;;;;;;;12.97;10.67;;;8.80;99.90;;;;;;5026174;28;20467;-68
2022/11/13 02:30:30;;;;;;;14.23;12.10;;;8.70;99.90;;;;;;5024650;28;20662;-68
2022/11/13 02:32:57;;;;;;;14.80;12.30;;;8.70;99.90;;;;;;5028929;28;20505;-68
2022/11/13 02:35:27;;;;;;;16.63;12.10;;;8.70;99.90;;;;;;5025423;28;20783;-68
2022/11/13 02:37:55;;;;;;;14.63;12.07;;;8.70;99.90;;;;;;5024415;28;20831;-67
2022/11/13 02:40:20;;;;;;;15.20;12.23;;;8.70;99.90;;;;;;5025248;28;20437;-67
2022/11/13 02:42:46;;;;;;;17.83;12.60;;;8.70;99.90;;;;;;5025445;28;20779;-67
2022/11/13 02:45:12;;;;;;;14.20;11.30;;;8.70;99.90;;;;;;5023401;28;20192;-67
2022/11/13 02:47:37;;;;;;;14.37;12.77;;;8.70;99.90;;;;;;5025750;28;20187;-69
2022/11/13 02:50:04;;;;;;;14.27;12.43;;;8.70;99.90;;;;;;5024694;28;20448;-67
2022/11/13 02:52:30;;;;;;;14.40;12.03;;;8.70;99.90;;;;;;5024244;28;20200;-67
2022/11/13 02:54:56;;;;;;;17.80;11.40;;;8.70;99.90;;;;;;5026934;28;20523;-68
2022/11/13 02:57:22;;;;;;;13.67;11.63;;;8.70;99.90;;;;;;5021778;28;20531;-67
2022/11/13 02:59:47;;;;;;;14.13;11.83;;;8.60;99.90;;;;;;5026293;28;20177;-67
2022/11/13 03:02:13;;;;;;;15.33;12.60;;;8.60;99.90;;;;;;5025204;28;20493;-67
2022/11/13 03:04:38;;;;;;;14.20;12.10;;;8.60;99.90;;;;;;5023884;28;20196;-67
2022/11/13 03:07:04;;;;;;;14.70;12.40;;;8.60;99.90;;;;;;5025975;28;20259;-67
2022/11/13 03:09:30;;;;;;;12.67;11.33;;;8.70;99.90;;;;;;5025532;28;20565;-67
2022/11/13 03:11:55;;;;;;;13.67;12.20;;;8.60;99.90;;;;;;5025933;28;20743;-68
2022/11/13 03:14:21;;;;;;;12.67;10.77;;;8.70;99.90;;;;;;5025717;28;20243;-68
2022/11/13 03:16:46;;;;;;;15.17;11.30;;;8.70;99.90;;;;;;5025338;28;20188;-68
2022/11/13 03:19:12;;;;;;;13.80;12.27;;;8.70;99.90;;;;;;5026448;28;20364;-68
2022/11/13 03:21:38;;;;;;;13.63;11.77;;;8.70;99.90;;;;;;5026463;28;20273;-68
2022/11/13 03:24:04;;;;;;;16.20;12.70;;;8.70;99.90;;;;;;5026689;28;20463;-68
2022/11/13 03:26:29;;;;;;;15.40;11.97;;;8.70;99.90;;;;;;5025973;28;20180;-68
2022/11/13 03:28:55;;;;;;;17.00;11.60;;;8.70;99.90;;;;;;5025565;28;20243;-68
2022/11/13 03:31:21;;;;;;;15.17;12.70;;;8.70;99.90;;;;;;5026359;28;20216;-68
2022/11/13 03:33:47;;;;;;;13.50;12.10;;;8.80;99.90;;;;;;5025087;28;20200;-68
2022/11/13 03:36:13;;;;;;;15.10;12.30;;;8.70;99.90;;;;;;5025293;28;20196;-67
2022/11/13 03:38:38;;;;;;;15.40;12.97;;;8.70;99.90;;;;;;5022474;28;20474;-68
2022/11/13 03:41:04;;;;;;;14.70;12.17;;;8.70;99.90;;;;;;5026071;28;20857;-67
2022/11/13 03:43:30;;;;;;;16.43;13.00;;;8.70;99.90;;;;;;5024625;28;20192;-68
2022/11/13 03:45:55;;;;;;;17.50;12.40;;;8.70;99.90;;;;;;5022187;28;20184;-67
2022/11/13 03:48:21;;;;;;;14.60;12.27;;;8.70;99.90;;;;;;5023393;28;21016;-68
2022/11/13 03:50:49;;;;;;;14.40;12.17;;;8.70;99.90;;;;;;5022937;28;20557;-68
2022/11/13 03:53:15;;;;;;;15.50;12.30;;;8.70;99.90;;;;;;5023112;28;20188;-66
2022/11/13 03:55:41;;;;;;;14.47;11.97;;;8.70;99.90;;;;;;5023353;28;20451;-66
2022/11/13 03:58:07;;;;;;;16.10;12.20;;;8.60;99.90;;;;;;5025627;28;20287;-67
2022/11/13 04:00:33;;;;;;;13.60;11.87;;;8.60;99.90;;;;;;5025050;28;20562;-67
2022/11/13 04:02:59;;;;;;;13.10;11.60;;;8.50;99.90;;;;;;5025244;28;20184;-67
2022/11/13 04:05:25;;;;;;;14.40;12.27;;;8.50;99.90;;;;;;5026322;28;20492;-68
2022/11/13 04:07:50;;;;;;;13.83;12.40;;;8.50;99.90;;;;;;5023953;28;20188;-68
2022/11/13 04:10:16;;;;;;;14.80;11.70;;;8.50;99.90;;;;;;5025331;28;20440;-66
2022/11/13 04:12:42;;;;;;;13.90;11.80;;;8.50;99.90;;;;;;5027501;28;20199;-67
2022/11/13 04:15:08;;;;;;;16.70;12.90;;;8.50;99.90;;;;;;5030111;28;20908;-67
2022/11/13 04:17:33;;;;;;;17.90;13.43;;;8.40;99.90;;;;;;5027974;28;20580;-67
2022/11/13 04:19:59;;;;;;;17.20;13.40;;;8.50;99.90;;;;;;5028314;28;20554;-67
2022/11/13 04:22:24;;;;;;;13.23;11.27;;;8.40;99.90;;;;;;5026640;28;20211;-67
2022/11/13 04:24:50;;;;;;;15.43;11.50;;;8.40;99.90;;;;;;5029921;28;20184;-67
2022/11/13 04:27:15;;;;;;;15.93;13.27;;;8.40;99.90;;;;;;5029590;28;20230;-68
2022/11/13 04:29:41;;;;;;;16.27;11.77;;;8.40;99.90;;;;;;5028544;28;20196;-69
2022/11/13 04:32:06;;;;;;;15.27;12.10;;;8.40;99.90;;;;;;5024453;28;20635;-67
2022/11/13 04:34:32;;;;;;;15.23;12.73;;;8.40;99.90;;;;;;5028901;28;20649;-68
2022/11/13 04:36:58;;;;;;;13.27;11.87;;;8.40;99.90;;;;;;5027916;28;20192;-68
2022/11/13 04:39:24;;;;;;;14.90;12.57;;;8.40;99.90;;;;;;5027293;28;20298;-66
2022/11/13 04:44:33;;;;;;;16.30;12.37;;;8.40;99.90;;;;;;5026443;28;20446;-67
2022/11/13 04:46:59;;;;;;;14.60;12.57;;;8.40;99.90;;;;;;5028753;28;20458;-68
2022/11/13 04:49:25;;;;;;;14.93;12.33;;;8.40;99.90;;;;;;5024828;28;20597;-67
2022/11/13 04:51:50;;;;;;;15.20;11.57;;;8.40;99.90;;;;;;5027200;28;20635;-68
2022/11/13 04:54:16;;;;;;;14.00;11.90;;;8.40;99.90;;;;;;5027778;28;20215;-66
2022/11/13 04:56:41;;;;;;;14.50;11.50;;;8.40;99.90;;;;;;5025448;28;20226;-68
2022/11/13 04:59:07;;;;;;;13.40;11.40;;;8.40;99.90;;;;;;5024788;28;20195;-68
2022/11/13 05:01:34;;;;;;;17.20;12.20;;;8.40;99.90;;;;;;5025446;28;20212;-68
2022/11/13 05:03:59;;;;;;;14.93;11.80;;;8.40;99.90;;;;;;5025997;28;20243;-68
2022/11/13 05:06:25;;;;;;;14.57;12.17;;;8.40;99.90;;;;;;5025304;28;20438;-68
2022/11/13 05:08:51;;;;;;;14.67;12.23;;;8.40;99.90;;;;;;5025303;28;20197;-68
2022/11/13 05:11:16;;;;;;;13.03;11.60;;;8.40;99.90;;;;;;5027488;28;20212;-68
2022/11/13 05:13:42;;;;;;;14.57;11.97;;;8.40;99.90;;;;;;5029361;28;20220;-69
2022/11/13 05:16:10;;;;;;;15.50;11.50;;;8.50;99.90;;;;;;5027830;28;20193;-67
2022/11/13 05:18:36;;;;;;;14.23;11.63;;;8.50;99.90;;;;;;5026131;28;20292;-67
2022/11/13 05:21:03;;;;;;;14.80;11.73;;;8.40;99.90;;;;;;5027959;28;20542;-66
2022/11/13 05:23:29;;;;;;;21.30;11.73;;;8.40;99.90;;;;;;5026277;28;20443;-67
2022/11/13 05:26:07;;;;;;;14.17;10.97;;;8.40;99.90;;;;;;5027259;28;20458;-69
2022/11/13 05:28:33;;;;;;;13.43;10.80;;;8.40;99.90;;;;;;5024511;28;20192;-67
2022/11/13 05:31:06;;;;;;;12.50;11.17;;;8.40;99.90;;;;;;5031409;28;20443;-68
2022/11/13 05:33:31;;;;;;;13.93;11.10;;;8.40;99.90;;;;;;5024485;28;20458;-68
2022/11/13 05:36:12;;;;;;;14.83;12.40;;;8.40;99.90;;;;;;5028385;28;20439;-68
2022/11/13 05:38:38;;;;;;;14.33;11.20;;;8.40;99.90;;;;;;5024611;28;20203;-68
2022/11/13 05:41:15;;;;;;;13.60;11.07;;;8.40;99.90;;;;;;5025951;28;20453;-68
2022/11/13 05:43:41;;;;;;;16.23;12.30;;;8.30;99.90;;;;;;5026104;28;20415;-67
2022/11/13 05:46:08;;;;;;;12.30;10.50;;;8.30;99.90;;;;;;5026423;28;20427;-67
2022/11/13 05:48:34;;;;;;;13.40;11.67;;;8.30;99.90;;;;;;5023966;28;20443;-68
2022/11/13 05:51:06;;;;;;;14.97;11.73;;;8.30;99.90;;;;;;5025438;28;21004;-68
2022/11/13 05:53:33;;;;;;;12.30;10.10;;;8.30;99.90;;;;;;5025524;28;20504;-68
2022/11/13 05:56:00;;;;;;;14.33;10.53;;;8.30;99.90;;;;;;5026256;28;20431;-68
2022/11/13 05:58:27;;;;;;;15.10;10.83;;;8.20;99.90;;;;;;5026311;28;20471;-68
2022/11/13 06:00:53;;;;;;;12.90;10.53;;;8.20;99.90;;;;;;5026054;28;20447;-68
2022/11/13 06:03:19;;;;;;;15.90;11.10;;;8.20;99.90;;;;;;5027651;28;20431;-68
2022/11/13 06:05:44;;;;;;;12.93;10.07;;;8.20;99.90;;;;;;5025942;28;20590;-69
2022/11/13 06:08:10;;;;;;;13.60;10.83;;;8.20;99.90;;;;;;5026356;28;20189;-67
2022/11/13 06:10:35;;;;;;;14.70;10.80;;;8.20;99.90;;;;;;5025449;28;20199;-67
2022/11/13 06:13:01;;;;;;;12.90;11.10;;;8.30;99.90;;;;;;5027252;28;20191;-67
2022/11/13 06:15:26;;;;;;;12.20;9.57;;;8.20;99.90;;;;;;5024826;28;20248;-68
2022/11/13 06:17:52;;;;;;;12.40;10.13;;;8.20;99.90;;;;;;5024969;28;20297;-67
2022/11/13 06:20:17;;;;;;;12.63;10.80;;;8.20;99.90;;;;;;5025836;28;20195;-68
2022/11/13 06:22:43;;;;;;;13.07;9.50;;;8.20;99.90;;;;;;5024581;28;20199;-68
2022/11/13 06:25:08;;;;;;;13.07;10.77;;;8.20;99.90;;;;;;5025838;28;20204;-67
2022/11/13 06:27:34;;;;;;;16.50;11.47;;;8.20;99.90;;;;;;5025456;28;20207;-68
2022/11/13 06:30:00;;;;;;;15.47;10.83;;;8.20;99.90;;;;;;5028889;28;20188;-68
2022/11/13 06:32:25;;;;;;;13.30;10.57;;;8.20;99.90;;;;;;5025000;28;20223;-69
2022/11/13 06:34:51;;;;;;;12.90;11.20;;;8.20;99.90;;;;;;5024658;28;20188;-67
2022/11/13 06:37:16;;;;;;;13.03;10.10;;;8.20;99.90;;;;;;5024673;28;20192;-69
2022/11/13 06:39:42;;;;;;;12.10;10.57;;;8.20;99.90;;;;;;5027367;28;20199;-66
2022/11/13 06:42:07;;;;;;;13.73;11.33;;;8.20;99.90;;;;;;5022471;28;20287;-68
2022/11/13 06:44:33;;;;;;;14.47;11.10;;;8.10;99.90;;;;;;5027111;28;20230;-67
2022/11/13 06:46:58;;;;;;;14.13;11.40;;;8.10;99.90;;;;;;5025815;28;20196;-67
2022/11/13 06:49:24;;;;;;;13.77;11.50;;;8.10;99.90;;;;;;5023105;28;20184;-67
2022/11/13 06:51:49;;;;;;;14.83;10.10;;;8.10;99.90;;;;;;5024307;28;20215;-67
2022/11/13 06:54:15;;;;;;;13.80;11.70;;;8.20;99.90;;;;;;5027848;28;20188;-67
2022/11/13 06:56:44;;;;;;;14.27;11.60;;;8.20;99.90;;;;;;5025646;28;20367;-67
2022/11/13 06:59:10;;;;;;;12.50;10.67;;;8.20;99.90;;;;;;5024925;28;20246;-67
2022/11/13 07:01:35;;;;;;;14.10;12.10;;;8.20;99.90;;;;;;5025657;28;20487;-68
2022/11/13 07:04:02;;;;;;;16.60;11.50;;;8.20;99.90;;;;;;5026120;28;20266;-67
2022/11/13 07:06:28;;;;;;;14.33;11.60;;;8.20;99.90;;;;;;5024862;28;20469;-66
2022/11/13 07:08:53;;;;;;;13.97;11.50;;;8.20;99.90;;;;;;5025874;28;20450;-67
2022/11/13 07:11:21;;;;;;;13.60;10.27;;;8.20;99.90;;;;;;5024791;28;20279;-67
2022/11/13 07:13:47;;;;;;;15.00;10.93;;;8.20;99.90;;;;;;5027713;28;20191;-68
2022/11/13 07:16:14;;;;;;;12.53;11.17;;;8.20;99.90;;;;;;5025690;28;20529;-67
2022/11/13 07:18:40;;;;;;;12.50;9.87;;;8.20;99.90;;;;;;5025446;28;20478;-67
2022/11/13 07:21:08;;;;;;;14.00;11.03;;;8.20;99.90;;;;;;5025221;28;20451;-68
2022/11/13 07:23:35;;;;;;;12.93;11.63;;;8.20;99.90;;;;;;5024824;28;20249;-68
2022/11/13 07:26:02;;;;;;;13.20;11.17;;;8.20;99.90;;;;;;5022233;28;20439;-68
2022/11/13 07:28:28;;;;;;;11.80;10.20;;;8.20;99.90;;;;;;5024373;28;20794;-69
2022/11/13 07:30:57;;;;;;;13.33;10.60;;;8.20;99.90;;;;;;5024169;28;20459;-69
2022/11/13 07:33:23;;;;;;;13.80;11.07;;;8.20;99.90;;;;;;5021998;28;20795;-70
2022/11/13 07:35:48;;;;;;;13.70;10.63;;;8.20;99.90;;;;;;5023654;28;20501;-68
2022/11/13 07:38:14;;;;;;;12.93;10.40;;;8.10;99.90;;;;;;5024994;28;20269;-68
2022/11/13 07:40:39;;;;;;;14.93;11.93;;;8.10;99.90;;;;;;5024379;28;20207;-68
2022/11/13 07:43:05;;;;;;;14.77;11.40;;;8.20;99.90;;;;;;5025290;28;20263;-68
2022/11/13 07:45:30;;;;;;;16.63;12.30;;;8.20;99.90;;;;;;5024029;28;20219;-68
2022/11/13 07:47:58;;;;;;;14.70;11.57;;;8.20;99.90;;;;;;5028734;28;20271;-68
2022/11/13 07:50:24;;;;;;;13.00;11.20;;;8.20;99.90;;;;;;5022992;28;20421;-68
2022/11/13 07:52:55;;;;;;;11.57;9.37;;;8.20;99.90;;;;;;5024530;28;20470;-67
2022/11/13 07:55:20;;;;;;;12.93;10.80;;;8.20;99.90;;;;;;5023355;28;20435;-67
2022/11/13 07:57:46;;;;;;;13.97;11.03;;;8.20;99.90;;;;;;5023518;28;20788;-68
2022/11/13 08:00:12;;;;;;;16.40;12.53;;;8.20;99.90;;;;;;5026837;28;20229;-67
2022/11/13 08:02:38;;;;;;;13.80;12.07;;;8.30;99.90;;;;;;5021282;28;20275;-68
2022/11/13 08:05:04;;;;;;;12.73;11.43;;;8.20;99.90;;;;;;5024133;28;20962;-69
2022/11/13 08:07:29;;;;;;;14.60;11.17;;;8.30;99.90;;;;;;5023352;28;20196;-68
2022/11/13 08:09:55;;;;;;;11.20;10.07;;;8.30;99.90;;;;;;5024012;28;20191;-69
2022/11/13 08:12:20;;;;;;;13.50;11.43;;;8.30;99.90;;;;;;5026212;28;20573;-68
2022/11/13 08:14:46;;;;;;;14.20;10.17;;;8.30;99.90;;;;;;5026284;28;20699;-67
2022/11/13 08:17:11;;;;;;;13.23;11.60;;;8.40;99.90;;;;;;5026859;28;20259;-67
2022/11/13 08:19:37;;;;;;;13.67;10.83;;;8.40;99.90;;;;;;5024023;28;20210;-67
2022/11/13 08:22:03;;;;;;;13.40;10.57;;;8.40;99.90;;;;;;5023093;28;20237;-67
2022/11/13 08:24:28;;;;;;;11.27;10.07;;;8.40;99.90;;;;;;5024133;28;20184;-68
2022/11/13 08:26:54;;;;;;;13.40;12.00;;;8.40;99.90;;;;;;5022518;28;20496;-67
2022/11/13 08:29:20;;;;;;;14.23;10.40;;;8.40;99.90;;;;;;5023898;28;20237;-67
2022/11/13 08:31:45;;;;;;;14.33;11.87;;;8.40;99.90;;;;;;5020975;28;20322;-68
2022/11/13 08:34:11;;;;;;;15.43;11.30;;;8.50;99.90;;;;;;5024314;28;20196;-69
2022/11/13 08:36:36;;;;;;;15.17;12.80;;;8.50;99.90;;;;;;5023619;28;20255;-68
2022/11/13 08:39:02;;;;;;;12.50;10.53;;;8.50;99.90;;;;;;5024658;28;20217;-68
2022/11/13 08:41:27;;;;;;;12.37;11.10;;;8.60;99.90;;;;;;5023076;28;20218;-69
2022/11/13 08:43:53;;;;;;;11.13;10.03;;;8.60;99.90;;;;;;5024683;28;20188;-67
2022/11/13 08:46:19;;;;;;;13.90;11.57;;;8.60;99.90;;;;;;5024323;28;20606;-69
2022/11/13 08:48:44;;;;;;;11.70;10.50;;;8.70;99.90;;;;;;5022849;28;20223;-69
2022/11/13 08:51:10;;;;;;;11.60;9.70;;;8.70;99.90;;;;;;5023320;28;20215;-66
2022/11/13 08:53:35;;;;;;;11.00;9.37;;;8.70;99.90;;;;;;5025004;28;20193;-69
2022/11/13 08:56:02;;;;;;;10.87;9.77;;;8.80;99.90;;;;;;5023014;28;20200;-68
2022/11/13 08:58:27;;;;;;;10.33;9.00;;;8.80;99.90;;;;;;5024646;28;20632;-68
2022/11/13 09:00:57;;;;;;;11.70;9.70;;;8.80;99.90;;;;;;5024377;28;20455;-68
2022/11/13 09:03:23;;;;;;;13.73;10.70;;;8.80;99.90;;;;;;5025412;28;20603;-69
2022/11/13 09:05:48;;;;;;;13.07;11.30;;;8.90;99.90;;;;;;5025963;28;20514;-68
2022/11/13 09:08:14;;;;;;;13.47;10.93;;;8.90;99.90;;;;;;5031705;28;20184;-68
2022/11/13 09:10:40;;;;;;;12.53;10.73;;;8.90;99.90;;;;;;5027166;28;20211;-67
2022/11/13 09:13:07;;;;;;;12.20;10.40;;;9.00;99.90;;;;;;5029717;28;20192;-69
2022/11/13 09:15:33;;;;;;;13.83;11.03;;;9.00;99.90;;;;;;5025653;28;20180;-68
2022/11/13 09:18:01;;;;;;;11.83;10.30;;;9.00;99.90;;;;;;5029428;28;20470;-70
2022/11/13 09:20:28;;;;;;;12.50;10.37;;;9.10;99.90;;;;;;5026964;28;20477;-68
2022/11/13 09:23:02;;;;;;;11.90;9.70;;;9.10;99.90;;;;;;5029462;28;20433;-68
2022/11/13 09:25:29;;;;;;;12.17;9.70;;;9.20;99.90;;;;;;5027113;28;20475;-69
2022/11/13 09:27:58;;;;;;;10.03;9.00;;;9.30;99.90;;;;;;5025347;28;20851;-68
2022/11/13 09:30:24;;;;;;;13.33;11.23;;;9.30;99.90;;;;;;5029169;28;20458;-68
2022/11/13 09:32:56;;;;;;;10.40;9.30;;;9.30;99.90;;;;;;5025172;28;20549;-68
2022/11/13 09:35:35;;;;;;;13.10;10.47;;;9.20;99.90;;;;;;5028313;28;21950;-68
2022/11/13 09:38:01;;;;;;;12.87;10.47;;;9.20;99.90;;;;;;5025986;28;20467;-68
2022/11/13 09:40:36;;;;;;;12.40;11.10;;;9.20;99.90;;;;;;5025578;28;20542;-68
2022/11/13 09:43:06;;;;;;;12.10;10.30;;;9.10;99.90;;;;;;5023690;28;20423;-68
2022/11/13 09:45:32;;;;;;;12.80;10.50;;;9.10;99.90;;;;;;5022534;28;20466;-69
2022/11/13 09:48:09;;;;;;;12.43;10.77;;;9.10;99.90;;;;;;5026462;28;21017;-68
2022/11/13 09:50:35;;;;;;;12.33;10.30;;;9.10;99.90;;;;;;5024890;28;20544;-69
2022/11/13 09:53:03;;;;;;;13.90;10.60;;;9.20;99.90;;;;;;5027109;28;20431;-68
2022/11/13 09:55:37;;;;;;;11.80;10.07;;;9.30;99.90;;;;;;5027785;28;20978;-67
2022/11/13 09:58:13;;;;;;;12.03;10.83;;;9.40;99.90;;;;;;5023138;28;21030;-68
2022/11/13 10:00:39;;;;;;;10.27;8.83;;;9.50;99.90;;;;;;5024706;28;20473;-68
2022/11/13 10:03:14;;;;;;;10.70;9.43;;;9.50;99.90;;;;;;5028264;28;20735;-68
2022/11/13 10:06:09;;;;;;;10.53;9.07;;;9.60;99.90;;;;;;5025407;28;20184;-69
2022/11/13 10:08:37;;;;;;;9.47;8.47;;;9.60;99.90;;;;;;5022816;28;20475;-68
2022/11/13 10:11:13;;;;;;;12.53;9.60;;;9.60;99.90;;;;;;5026365;28;20492;-67
2022/11/13 10:13:46;;;;;;;12.17;9.40;;;9.60;99.90;;;;;;5025111;28;20514;-68
2022/11/13 10:16:30;;;;;;;11.70;10.50;;;9.60;99.90;;;;;;5025292;28;20454;-67
2022/11/13 10:19:05;;;;;;;14.47;9.93;;;9.60;99.90;;;;;;5025116;28;20470;-68
2022/11/13 10:21:38;;;;;;;9.40;8.27;;;9.60;99.90;;;;;;5023802;28;20452;-68
2022/11/13 10:24:31;;;;;;;11.80;10.50;;;9.60;99.90;;;;;;5023706;28;20419;-69
2022/11/13 10:26:58;;;;;;;13.90;10.50;;;9.60;99.90;;;;;;5017420;28;20546;-68
2022/11/13 10:29:27;;;;;;;13.63;10.93;;;9.60;99.90;;;;;;5024562;28;20431;-69
2022/11/13 10:31:53;;;;;;;14.60;11.37;;;9.60;99.90;;;;;;5025833;28;20513;-69
2022/11/13 10:34:19;;;;;;;12.17;10.53;;;9.60;99.90;;;;;;5027538;28;20434;-68
2022/11/13 10:37:13;;;;;;;11.67;10.20;;;9.70;99.90;;;;;;5024971;28;20438;-68
2022/11/13 10:39:45;;;;;;;10.70;9.37;;;9.70;99.90;;;;;;5026115;28;20216;-69
2022/11/13 10:42:27;;;;;;;11.20;9.13;;;9.70;99.90;;;;;;5026797;28;20782;-69
2022/11/13 10:44:57;;;;;;;11.23;9.10;;;9.80;99.90;;;;;;5025662;28;20434;-66
2022/11/13 10:47:25;;;;;;;12.47;10.13;;;9.80;99.90;;;;;;5022911;28;20537;-67
2022/11/13 10:49:51;;;;;;;30.13;11.13;;;9.80;99.90;;;;;;5027851;28;20430;-68
2022/11/13 10:52:18;;;;;;;11.77;10.50;;;9.90;99.90;;;;;;5026264;28;20985;-69
2022/11/13 10:54:44;;;;;;;11.80;9.17;;;9.90;99.90;;;;;;5027080;28;20662;-67
2022/11/13 10:57:34;;;;;;;9.03;8.13;;;10.00;99.90;;;;;;5022657;28;20749;-67
2022/11/13 11:00:00;;;;;;;11.10;9.07;;;9.90;99.90;;;;;;5025645;28;20598;-68
2022/11/13 11:02:27;;;;;;;12.30;9.40;;;10.00;99.90;;;;;;5023941;28;20532;-67
2022/11/13 11:05:03;;;;;;;11.37;9.50;;;9.90;99.90;;;;;;5025706;28;20538;-69
2022/11/13 11:07:33;;;;;;;10.40;8.70;;;10.00;99.90;;;;;;5023270;28;20535;-68
2022/11/13 11:09:58;;;;;;;9.43;8.50;;;10.10;99.90;;;;;;5022158;28;20435;-67
2022/11/13 11:12:24;;;;;;;11.37;8.57;;;10.10;99.90;;;;;;5024746;28;20963;-67
2022/11/13 11:15:19;;;;;;;10.70;9.60;;;10.20;99.90;;;;;;5023753;28;20220;-68
2022/11/13 11:17:56;;;;;;;13.20;9.70;;;10.30;99.90;;;;;;5025265;28;20604;-68
2022/11/13 11:20:35;;;;;;;13.20;9.33;;;10.30;99.90;;;;;;5036488;28;20956;-68
2022/11/13 11:23:13;;;;;;;8.57;7.67;;;10.40;99.90;;;;;;5024111;28;20458;-68
2022/11/13 11:25:58;;;;;;;11.37;10.17;;;10.40;99.90;;;;;;5023322;28;20435;-67
2022/11/13 11:28:29;;;;;;;10.33;9.17;;;10.50;99.90;;;;;;5022345;28;20908;-69
2022/11/13 11:31:09;;;;;;;12.07;9.50;;;10.50;99.90;;;;;;5025507;28;20442;-68
2022/11/13 11:33:46;;;;;;;11.73;9.97;;;10.60;99.90;;;;;;5023454;28;20507;-70
2022/11/13 11:36:32;;;;;;;11.23;9.13;;;10.70;99.90;;;;;;5025770;28;20438;-69
2022/11/13 11:39:33;;;;;;;11.53;9.40;;;10.80;99.90;;;;;;5025618;28;20820;-67
2022/11/13 11:42:36;;;;;;;9.30;8.30;;;10.90;99.90;;;;;;5025587;28;20512;-67
2022/11/13 11:45:32;;;;;;;8.97;8.07;;;11.00;99.90;;;;;;5024187;28;21129;-67
2022/11/13 11:47:59;;;;;;;10.20;8.23;;;11.10;99.90;;;;;;5023075;28;21079;-68
2022/11/13 11:51:17;;;;;;;8.50;7.60;;;11.20;99.90;;;;;;5023183;28;20433;-67
2022/11/13 11:54:10;;;;;;;10.67;9.00;;;11.40;99.90;;;;;;4984959;28;20435;-68
2022/11/13 11:56:52;;;;;;;9.93;8.27;;;11.60;99.90;;;;;;5023082;28;20431;-66
2022/11/13 11:59:18;;;;;;;9.73;8.73;;;11.90;99.90;;;;;;5021851;28;20462;-68
2022/11/13 12:02:04;;;;;;;10.00;8.50;;;13.00;99.90;;;;;;5022898;28;20830;-67
2022/11/13 12:04:33;;;;;;;9.77;8.70;;;14.40;99.90;;;;;;5023343;28;20255;-68
2022/11/13 12:07:24;;;;;;;8.77;7.97;;;15.90;99.90;;;;;;5024879;28;20430;-66
2022/11/13 12:10:18;;;;;;;8.00;7.30;;;17.20;99.90;;;;;;5023108;28;20481;-69
2022/11/13 12:12:58;;;;;;;8.30;7.53;;;18.30;99.90;;;;;;4983174;28;20431;-68
2022/11/13 12:16:03;;;;;;;8.40;7.70;;;19.40;99.90;;;;;;5028199;28;20943;-66
2022/11/13 12:18:35;;;;;;;7.23;6.50;;;20.50;99.90;;;;;;4999713;28;20497;-68
2022/11/13 12:21:08;;;;;;;8.53;7.73;;;21.30;99.90;;;;;;5023525;28;20522;-67
2022/11/13 12:23:55;;;;;;;7.60;6.90;;;22.00;99.90;;;;;;5023368;28;20421;-68
2022/11/13 12:26:35;;;;;;;7.83;6.97;;;22.80;99.90;;;;;;5023308;28;20447;-68
2022/11/13 12:29:18;;;;;;;7.70;7.00;;;23.40;99.90;;;;;;5022210;28;20454;-66
2022/11/13 12:31:43;;;;;;;8.07;7.27;;;23.70;99.90;;;;;;5023746;28;20833;-68
2022/11/13 12:34:21;;;;;;;8.03;7.33;;;24.00;99.90;;;;;;5031039;28;20428;-68
2022/11/13 12:36:47;;;;;;;6.80;6.20;;;24.30;99.90;;;;;;5027825;28;20259;-67
2022/11/13 12:39:39;;;;;;;7.80;7.10;;;24.40;99.90;;;;;;5028491;28;20474;-68
2022/11/13 12:42:43;;;;;;;7.80;6.97;;;24.40;98.00;;;;;;5026666;28;20462;-68
2022/11/13 12:45:09;;;;;;;7.90;7.30;;;24.30;97.70;;;;;;5025957;28;20525;-68
2022/11/13 12:47:35;;;;;;;7.53;6.83;;;24.20;95.90;;;;;;5026017;28;20554;-68
2022/11/13 12:50:19;;;;;;;7.20;6.33;;;23.90;95.50;;;;;;5025583;28;20218;-67
2022/11/13 12:52:55;;;;;;;8.90;8.13;;;23.40;94.60;;;;;;5026879;28;20318;-67